الصفحة الرئيسية
METAR-TAF:

METAR-TAF

مطار :

قاعدة البساتين الجوية

مكناس, المغرب

دائرة عرض: 33-53N, خط طول: 005-32W, ارتفاع: 576 متر

METAR: مفقودة

زمن: 03:55 (02:55 UTC)

توقعات

تاريخ ووقت الإصدار 3ساعات و 55 دقيقة قبل الساعة 23:00UTC
التوقعات صالحة من06 الساعة 00 UTC إلى 07 الساعة 06 UTC
ريح 5 عقدة من الجنوب الشرقي
الرؤية 10 كم أو أكثر
الغيوم لا تقل 1500 م ولا وجود لمزنة ركامية السحاب الأسود
نظرية الاحتمالات 30% :
مؤقت
من 06 الساعة 03 UTC إلى 06 الساعة 06 UTC
الرؤية: 3000 متر
غيوم متفرقة على ارتفاع 1000 قدم
غشاء
أصبح
من 06 الساعة 12 UTC إلى 06 الساعة 14 UTC
ريح 10 عقدة من الشرق
الرؤية 10 كم أو أكثر
غيوم متفرقة على ارتفاع 2000 قدم
غيوم متفرقة على ارتفاع 10000 قدم

TAF: GMFM 052300Z 0600/0706 14005KT CAVOK PROB30 TEMPO 0603/0606 3000 BR SCT010 BECMG 0612/0614 08010KT 9999 SCT020 SCT100

أرصاد الطقس والتوقعات من أكثر من 4000 مطار (تقارير الطقس للمطار METAR والتنبؤ بالطقس بالمطارTAF).

المحطات المتاحة هي النقط الصفراء والحمراء على الخريطة.

حرك المؤشر فوق النقطة لمعرفة اسم المحطة.

ثم انقر لمعرفة أرصاد وتوقعات الطقس.

لتغيير الخارطة: اضغط على الأزرار الخضراء مع رمز الصليب الأسود للتكبير. على الزر الأخضر مع شرطة للتصغير، أو على الأسهم الخضراء للخرائط المجاورة.


METAR-TAF: